createdAt,value
2022-10-17T00:06:35.673Z,5.37
2022-10-17T00:16:37.491Z,5.80
2022-10-17T00:26:38.811Z,5.38
2022-10-17T00:36:40.601Z,5.78
2022-10-17T00:46:41.947Z,6.00
2022-10-17T00:56:44.404Z,5.70
2022-10-17T01:06:45.742Z,6.10
2022-10-17T01:17:11.260Z,6.10
2022-10-17T01:27:29.739Z,5.53
2022-10-17T01:37:44.123Z,6.05
2022-10-17T01:47:48.895Z,6.47
2022-10-17T01:57:55.113Z,6.63
2022-10-17T02:07:56.432Z,5.93
2022-10-17T02:18:03.544Z,5.57
2022-10-17T02:28:42.825Z,5.83
2022-10-17T02:38:45.539Z,6.00
2022-10-17T02:49:02.738Z,5.45
2022-10-17T02:59:08.327Z,5.73
2022-10-17T03:09:09.672Z,5.83
2022-10-17T03:19:11.111Z,5.88
2022-10-17T03:29:13.739Z,5.97
2022-10-17T03:39:15.095Z,6.23
2022-10-17T03:49:16.425Z,5.88
2022-10-17T03:59:17.905Z,5.20
2022-10-17T04:09:19.288Z,5.57
2022-10-17T04:19:20.692Z,5.23
2022-10-17T04:29:22.059Z,5.13
2022-10-17T04:39:23.404Z,5.20
2022-10-17T04:49:24.860Z,5.80
2022-10-17T04:59:26.300Z,5.65
2022-10-17T05:09:27.867Z,5.30
2022-10-17T05:19:29.184Z,5.87
2022-10-17T05:29:30.510Z,5.80
2022-10-17T05:39:31.910Z,5.17
2022-10-17T05:49:45.188Z,5.00
2022-10-17T05:59:51.264Z,5.50
2022-10-17T06:09:52.616Z,5.40
2022-10-17T06:19:53.973Z,5.30
2022-10-17T06:29:55.425Z,4.73
2022-10-17T06:39:56.746Z,4.68
2022-10-17T06:49:58.085Z,5.20
2022-10-17T06:59:59.460Z,6.17
2022-10-17T07:10:00.972Z,5.38
2022-10-17T07:20:02.407Z,5.00
2022-10-17T07:30:04.113Z,4.80
2022-10-17T07:40:07.840Z,5.30
2022-10-17T07:50:09.488Z,4.80
2022-10-17T08:00:11.264Z,4.90
2022-10-17T08:10:14.481Z,4.70
2022-10-17T08:20:16.606Z,4.72
2022-10-17T08:30:18.081Z,4.47
2022-10-17T08:40:24.242Z,4.70
2022-10-17T08:50:46.520Z,4.35
2022-10-17T09:01:01.862Z,4.37
2022-10-17T09:11:14.374Z,4.70
2022-10-17T09:21:41.658Z,5.03
2022-10-17T09:31:51.067Z,4.55
2022-10-17T09:42:01.500Z,4.60
2022-10-17T09:52:05.526Z,4.87
2022-10-17T10:02:21.599Z,4.13
2022-10-17T10:12:35.145Z,3.90
2022-10-17T10:22:36.474Z,4.47
2022-10-17T10:32:38.058Z,4.20
2022-10-17T10:42:41.162Z,4.73
2022-10-17T10:52:52.140Z,4.60
2022-10-17T11:02:53.780Z,4.47
2022-10-17T11:13:03.502Z,4.78
2022-10-17T11:23:31.212Z,5.43
2022-10-17T11:34:00.887Z,5.83
2022-10-17T11:44:26.764Z,5.18
2022-10-17T11:54:42.905Z,5.53
2022-10-17T12:04:49.664Z,5.97
2022-10-17T12:14:51.299Z,5.78
2022-10-17T12:25:01.840Z,5.60
2022-10-17T12:35:03.593Z,5.57
2022-10-17T12:45:43.918Z,5.30
2022-10-17T12:55:45.869Z,5.97
2022-10-17T13:06:01.106Z,6.20
2022-10-17T13:16:03.336Z,5.40
2022-10-17T13:26:22.761Z,5.82
2022-10-17T13:36:25.494Z,5.00
2022-10-17T13:46:39.924Z,4.57
2022-10-17T13:56:41.549Z,4.72
2022-10-17T14:06:47.663Z,4.57
2022-10-17T14:16:52.930Z,4.10
2022-10-17T14:26:59.420Z,5.20
2022-10-17T14:37:01.491Z,3.90
2022-10-17T14:47:30.924Z,4.60
2022-10-17T14:57:47.357Z,4.53
2022-10-17T15:07:49.033Z,4.55
2022-10-17T15:17:50.358Z,5.47
2022-10-17T15:27:52.654Z,5.03
2022-10-17T15:37:54.705Z,5.15
2022-10-17T15:48:00.081Z,4.97
2022-10-17T15:58:01.456Z,4.40
2022-10-17T16:08:02.836Z,4.87
2022-10-17T16:18:06.683Z,5.45
2022-10-17T16:28:11.786Z,5.03
2022-10-17T16:38:13.122Z,4.27
2022-10-17T16:48:14.689Z,4.80
2022-10-17T16:58:16.035Z,5.17
2022-10-17T17:08:17.676Z,5.40
2022-10-17T17:18:20.660Z,4.90
2022-10-17T17:28:22.228Z,5.40
2022-10-17T17:38:24.293Z,5.37
2022-10-17T17:48:25.624Z,5.53
2022-10-17T17:58:27.003Z,5.38
2022-10-17T18:08:28.329Z,6.10
2022-10-17T18:18:30.424Z,5.80
2022-10-17T18:28:35.237Z,6.15
2022-10-17T18:38:37.221Z,6.00
2022-10-17T18:48:40.855Z,6.40
2022-10-17T18:58:42.629Z,6.63
2022-10-17T19:08:45.141Z,6.93
2022-10-17T19:18:57.368Z,7.10
2022-10-17T19:29:00.258Z,6.73
2022-10-17T19:39:05.741Z,5.85
2022-10-17T19:49:07.117Z,6.70
2022-10-17T19:59:11.037Z,6.87
2022-10-17T20:09:16.572Z,6.78
2022-10-17T20:19:18.854Z,6.23
2022-10-17T20:29:21.550Z,7.20
2022-10-17T20:39:22.888Z,6.55
2022-10-17T20:49:24.629Z,5.72
2022-10-17T20:59:27.771Z,5.77
2022-10-17T21:09:29.189Z,5.70
2022-10-17T21:19:30.759Z,5.38
2022-10-17T21:29:32.180Z,4.37
2022-10-17T21:39:33.536Z,5.13
2022-10-17T21:49:34.960Z,5.22
2022-10-17T21:59:36.285Z,5.20
2022-10-17T22:09:37.590Z,5.37
2022-10-17T22:19:38.913Z,5.97
2022-10-17T22:29:40.298Z,6.57
2022-10-17T22:39:41.630Z,5.30
2022-10-17T22:49:42.971Z,6.13
2022-10-17T22:59:44.350Z,4.90
2022-10-17T23:09:45.683Z,4.20
2022-10-17T23:19:47.038Z,3.80
2022-10-17T23:29:48.361Z,3.33
2022-10-17T23:39:49.697Z,3.30
2022-10-17T23:49:51.063Z,2.70
2022-10-17T23:59:52.412Z,2.60
